Daviess Cnty AP, Washington,, IN

9:18 PM EDT on October 19, 2019 (GMT -0400)
Daviess County

Weather History for KDCY - June, 2019

Change the Weather History Date:

Sunday, June 2, 2019

  Actual Average (KLWV) Record (KLWV)
Temperature  
Mean Temperature 72 °F -  
Max Temperature 80 °F 75 °F 92 °F (1991)
Min Temperature 64 °F 57 °F 45 °F (1993)
Cooling Degree Days 8    
Growing Degree Days 22 (Base 50)    
Moisture  
Dew Point 58 °F    
Average Humidity 63    
Maximum Humidity 83    
Minimum Humidity 37    
Precipitation  
Precipitation 0.00 in - - ()
Sea Level Pressure  
Sea Level Pressure 29.87 in    
Wind  
Wind Speed 8 mph (NW)    
Max Wind Speed 14 mph    
Max Gust Speed 22 mph    
Visibility 10 miles    
Events      
Averages and records for this station are not official NWS values.
T = Trace of Precipitation, MM = Missing Value Source: NWS Daily Summary

Daily Weather History Graph

Daily Weather History Graph

Search for Another Location

Airport or City:

Astronomy

Jun. 02, 2019 Rise Set
Actual Time 6:25 AM EDT 9:08 PM EDT
Civil Twilight 5:54 AM EDT 9:39 PM EDT
Nautical Twilight 5:14 AM EDT 10:18 PM EDT
Astronomical Twilight 4:30 AM EDT 11:02 PM EDT
Moon 6:03 AM EDT (6/2) 8:27 PM EDT (6/2)
Length of Visible Light 15h 45m
Length of Day
14h 42m
Waning Crescent, 1% of the Moon is Illuminated
Jun 2
Waning Crescent
Jun 3
New
Jun 10
First Quarter
Jun 17
Full
Jun 25
Last Quarter

Hourly Weather History & Observations

Time (EDT) Temp. Heat Index Dew Point Humidity Pressure Visibility Wind Dir Wind Speed Gust Speed Precip Events Conditions
12:15 AM 69.1 °F - 63.5 °F 82% 29.80 in 10.0 mi South 5.8 mph - N/A   Clear
12:30 AM 69.6 °F - 62.8 °F 79% 29.79 in 10.0 mi SSW 6.9 mph - N/A   Clear
12:55 AM 70.0 °F - 62.2 °F 76% 29.79 in 10.0 mi SSW 8.1 mph - N/A   Clear
1:15 AM 71.1 °F - 61.9 °F 73% 29.79 in 10.0 mi SW 9.2 mph - N/A   Clear
1:35 AM 71.4 °F - 61.7 °F 71% 29.78 in 10.0 mi SSW 8.1 mph - N/A   Clear
1:55 AM 71.6 °F - 61.7 °F 71% 29.78 in 10.0 mi SSW 9.2 mph - N/A   Clear
2:15 AM 71.4 °F - 61.2 °F 70% 29.78 in 10.0 mi SSW 9.2 mph - N/A   Clear
2:35 AM 71.8 °F - 61.2 °F 69% 29.78 in 10.0 mi SSW 10.4 mph - N/A   Clear
2:55 AM 71.2 °F - 61.7 °F 72% 29.78 in 10.0 mi SW 9.2 mph - N/A   Clear
3:15 AM 70.9 °F - 62.1 °F 74% 29.78 in 10.0 mi WSW 8.1 mph - N/A   Clear
3:35 AM 69.6 °F - 62.2 °F 77% 29.77 in 10.0 mi WSW 5.8 mph - N/A   Clear
3:55 AM 68.9 °F - 62.4 °F 80% 29.77 in 10.0 mi West 6.9 mph - N/A   Clear
4:15 AM 68.5 °F - 62.6 °F 81% 29.77 in 10.0 mi West 6.9 mph - N/A   Clear
4:35 AM 68.4 °F - 62.6 °F 82% 29.78 in 10.0 mi West 8.1 mph - N/A   Clear
4:55 AM 68.0 °F - 62.8 °F 83% 29.78 in 10.0 mi West 8.1 mph - N/A   Clear
5:15 AM 68.2 °F - 62.6 °F 82% 29.78 in 10.0 mi West 10.4 mph - N/A   Clear
5:35 AM 68.7 °F - 61.7 °F 78% 29.79 in 10.0 mi West 8.1 mph - N/A   Clear
5:55 AM 68.0 °F - 61.7 °F 80% 29.80 in 10.0 mi West 9.2 mph - N/A   Clear
6:15 AM 67.5 °F - 61.7 °F 82% 29.80 in 10.0 mi West 8.1 mph - N/A   Clear
6:35 AM 67.1 °F - 61.3 °F 82% 29.81 in 10.0 mi West 9.2 mph - N/A   Clear
6:55 AM 66.9 °F - 61.0 °F 81% 29.82 in 10.0 mi West 10.4 mph - N/A   Clear
7:15 AM 66.6 °F - 60.8 °F 82% 29.82 in 10.0 mi West 6.9 mph - N/A   Clear
7:35 AM 66.6 °F - 60.6 °F 81% 29.83 in 10.0 mi West 9.2 mph - N/A   Clear
7:55 AM 66.7 °F - 60.6 °F 81% 29.84 in 10.0 mi West 9.2 mph - N/A   Clear
8:15 AM 67.3 °F - 60.8 °F 80% 29.84 in 10.0 mi West 8.1 mph - N/A   Clear
8:35 AM 68.0 °F - 61.0 °F 78% 29.84 in 10.0 mi West 9.2 mph - N/A   Clear
8:55 AM 68.2 °F - 61.2 °F 78% 29.85 in 10.0 mi West 9.2 mph - N/A   Clear
9:15 AM 69.3 °F - 61.7 °F 77% 29.85 in 10.0 mi WNW 8.1 mph - N/A   Clear
9:35 AM 70.2 °F - 62.4 °F 76% 29.86 in 10.0 mi West 4.6 mph - N/A   Clear
9:55 AM 70.9 °F - 62.6 °F 75% 29.87 in 10.0 mi NW 6.9 mph - N/A   Clear
10:15 AM 71.6 °F - 62.8 °F 74% 29.88 in 10.0 mi NW 6.9 mph - N/A   Clear
10:35 AM 72.5 °F - 63.3 °F 73% 29.89 in 10.0 mi West 5.8 mph - N/A   Clear
10:55 AM 73.6 °F - 63.3 °F 70% 29.88 in 10.0 mi West 6.9 mph - N/A   Clear
11:15 AM 74.8 °F - 63.9 °F 69% 29.89 in 10.0 mi NW 5.8 mph - N/A   Clear
11:35 AM 76.3 °F - 64.6 °F 67% 29.89 in 10.0 mi West 6.9 mph - N/A   Clear
11:55 AM 76.6 °F - 64.8 °F 67% 29.89 in 10.0 mi WNW 9.2 mph - N/A   Scattered Clouds
12:15 PM 77.9 °F - 63.7 °F 61% 29.89 in 10.0 mi NNW 6.9 mph - N/A   Scattered Clouds
12:35 PM 78.6 °F - 63.5 °F 60% 29.89 in 10.0 mi NW 9.2 mph - N/A   Scattered Clouds
12:55 PM 78.8 °F - 64.0 °F 60% 29.90 in 10.0 mi NW 10.4 mph - N/A   Mostly Cloudy
1:15 PM 79.2 °F - 61.2 °F 54% 29.90 in 10.0 mi NW 13.8 mph - N/A   Mostly Cloudy
1:35 PM 80.2 °F 81.0 °F 60.1 °F 50% 29.90 in 10.0 mi NW 10.4 mph 18.4 mph N/A   Scattered Clouds
1:55 PM 80.4 °F 81.1 °F 59.9 °F 49% 29.90 in 10.0 mi NW 12.7 mph 21.9 mph N/A   Scattered Clouds
2:15 PM 79.2 °F - 59.4 °F 51% 29.90 in 10.0 mi North 11.5 mph 17.3 mph N/A   Mostly Cloudy
2:35 PM 79.7 °F - 59.0 °F 49% 29.90 in 10.0 mi NW 10.4 mph - N/A   Mostly Cloudy
2:55 PM 78.8 °F - 58.5 °F 50% 29.90 in 10.0 mi NNW 12.7 mph - N/A   Mostly Cloudy
3:15 PM 79.9 °F - 57.4 °F 46% 29.90 in 10.0 mi NW 10.4 mph - N/A   Scattered Clouds
3:35 PM 79.3 °F - 56.8 °F 46% 29.90 in 10.0 mi NW 11.5 mph 18.4 mph N/A   Scattered Clouds
3:55 PM 79.2 °F - 56.1 °F 45% 29.90 in 10.0 mi NNW 12.7 mph 17.3 mph N/A   Scattered Clouds
4:15 PM 80.1 °F 80.2 °F 55.8 °F 43% 29.91 in 10.0 mi NNW 11.5 mph - N/A   Scattered Clouds
4:35 PM 79.2 °F - 55.4 °F 44% 29.90 in 10.0 mi NNW 12.7 mph - N/A   Scattered Clouds
4:55 PM 79.5 °F - 54.1 °F 41% 29.90 in 10.0 mi NNW 13.8 mph 18.4 mph N/A   Clear
5:15 PM 79.5 °F - 53.2 °F 40% 29.91 in 10.0 mi NNW 8.1 mph 17.3 mph N/A   Clear
5:35 PM 79.2 °F - 51.3 °F 38% 29.91 in 10.0 mi NNW 12.7 mph - N/A   Clear
5:55 PM 78.8 °F - 50.5 °F 37% 29.91 in 10.0 mi NNW 10.4 mph 16.1 mph N/A   Clear
6:15 PM 78.8 °F - 50.5 °F 37% 29.91 in 10.0 mi North 12.7 mph 17.3 mph N/A   Clear
6:35 PM 77.9 °F - 49.3 °F 37% 29.91 in 10.0 mi NNW 13.8 mph 18.4 mph N/A   Clear
6:55 PM 77.7 °F - 49.8 °F 37% 29.92 in 10.0 mi North 9.2 mph - N/A   Clear
7:15 PM 77.0 °F - 49.1 °F 37% 29.91 in 10.0 mi North 6.9 mph 10.4 mph N/A   Clear
7:35 PM 76.5 °F - 49.5 °F 39% 29.91 in 10.0 mi North 8.1 mph - N/A   Clear
7:55 PM 75.6 °F - 50.2 °F 41% 29.92 in 10.0 mi North 4.6 mph - N/A   Clear
8:15 PM 74.7 °F - 50.9 °F 43% 29.92 in 10.0 mi North 8.1 mph - N/A   Clear
8:35 PM 73.0 °F - 52.3 °F 48% 29.92 in 10.0 mi North 8.1 mph - N/A   Clear
8:55 PM 71.4 °F - 53.4 °F 53% 29.93 in 10.0 mi NNW 5.8 mph - N/A   Clear
9:15 PM 70.3 °F - 53.4 °F 55% 29.94 in 10.0 mi North 6.9 mph - N/A   Clear
9:35 PM 68.0 °F - 54.0 °F 61% 29.95 in 10.0 mi North 5.8 mph - N/A   Clear
9:55 PM 66.7 °F - 54.3 °F 64% 29.95 in 10.0 mi North 5.8 mph - N/A   Clear
10:15 PM 68.7 °F - 52.5 °F 56% 29.96 in 10.0 mi North 10.4 mph - N/A   Clear
10:35 PM 68.4 °F - 52.0 °F 56% 29.97 in 10.0 mi NNE 8.1 mph - N/A   Clear
10:55 PM 67.1 °F - 51.6 °F 57% 29.98 in 10.0 mi NE 6.9 mph - N/A   Clear
11:15 PM 66.4 °F - 51.3 °F 58% 29.98 in 10.0 mi NE 5.8 mph - N/A   Clear
11:35 PM 65.5 °F - 51.1 °F 60% 29.99 in 10.0 mi NNE 4.6 mph - N/A   Clear
11:55 PM 64.9 °F - 50.2 °F 59% 29.99 in 10.0 mi NE 5.8 mph - N/A   Clear